Terminal Aerodrome Forecast
Issued by NWS

Home | Current Version | Previous Version | Text Only | Print | Product List | Glossary On
Versions: 1 2 3 4 5 6 7 8 9 10 11 12 13 14 15
000
FTUS46 KSGX 171120
TAFSNA
TAF
KSNA 171120Z 1712/1812 VRB02KT P6SM OVC013
     FM171600 VRB04KT P6SM SCT015
     FM171900 22009KT P6SM SKC
     FM180200 VRB04KT P6SM SCT012
     FM180800 VRB02KT P6SM BKN012=

USA.gov is the U.S. government's official web portal to all federal, state and local government web resources and services.